createdAt,value
2022-12-20T00:00:46.607Z,8.73
2022-12-20T00:03:52.916Z,8.93
2022-12-20T00:06:55.785Z,8.53
2022-12-20T00:10:01.213Z,8.57
2022-12-20T00:13:05.303Z,8.65
2022-12-20T00:16:09.989Z,8.35
2022-12-20T00:19:14.151Z,8.30
2022-12-20T00:22:16.859Z,9.07
2022-12-20T00:25:22.600Z,8.80
2022-12-20T00:28:26.797Z,8.48
2022-12-20T00:31:33.463Z,9.60
2022-12-20T00:34:37.483Z,8.82
2022-12-20T00:37:40.604Z,8.30
2022-12-20T00:40:45.897Z,8.27
2022-12-20T00:43:50.801Z,8.30
2022-12-20T00:46:53.834Z,8.40
2022-12-20T00:49:57.795Z,8.02
2022-12-20T00:53:00.771Z,8.70
2022-12-20T00:56:06.238Z,8.90
2022-12-20T00:59:10.232Z,8.88
2022-12-20T01:02:13.485Z,8.23
2022-12-20T01:05:17.607Z,8.57
2022-12-20T01:08:21.141Z,8.57
2022-12-20T01:11:29.431Z,8.67
2022-12-20T01:14:34.291Z,10.10
2022-12-20T01:17:37.265Z,7.78
2022-12-20T01:20:41.260Z,7.82
2022-12-20T01:23:43.995Z,8.13
2022-12-20T01:26:50.178Z,7.70
2022-12-20T01:29:54.238Z,8.40
2022-12-20T01:32:56.969Z,8.52
2022-12-20T01:36:02.738Z,8.40
2022-12-20T01:39:08.739Z,8.57
2022-12-20T01:42:16.618Z,9.30
2022-12-20T01:45:29.023Z,8.25
2022-12-20T01:48:32.047Z,8.63
2022-12-20T01:51:40.487Z,8.82
2022-12-20T01:54:47.804Z,8.13
2022-12-20T01:57:58.824Z,7.93
2022-12-20T02:01:02.893Z,8.45
2022-12-20T02:04:05.881Z,8.48
2022-12-20T02:07:12.087Z,8.93
2022-12-20T02:10:16.607Z,8.87
2022-12-20T02:13:35.835Z,8.07
2022-12-20T02:16:46.602Z,8.35
2022-12-20T02:20:24.469Z,8.93
2022-12-20T02:24:03.400Z,7.50
2022-12-20T02:27:45.463Z,8.20
2022-12-20T02:30:54.834Z,8.73
2022-12-20T02:34:00.588Z,7.35
2022-12-20T02:37:03.820Z,8.00
2022-12-20T02:40:09.425Z,8.43
2022-12-20T02:43:28.296Z,8.33
2022-12-20T02:46:33.900Z,8.27
2022-12-20T02:49:42.317Z,8.43
2022-12-20T02:52:45.715Z,7.88
2022-12-20T02:55:55.214Z,8.52
2022-12-20T03:02:27.911Z,8.47
2022-12-20T03:05:33.119Z,7.43
2022-12-20T03:08:36.608Z,8.50
2022-12-20T03:11:40.691Z,8.63
2022-12-20T03:14:44.023Z,8.50
2022-12-20T03:17:49.289Z,7.70
2022-12-20T03:20:52.026Z,8.68
2022-12-20T03:23:54.971Z,7.18
2022-12-20T03:26:59.597Z,7.70
2022-12-20T03:30:02.357Z,8.67
2022-12-20T03:33:07.693Z,7.50
2022-12-20T03:36:10.528Z,7.43
2022-12-20T03:39:13.290Z,8.63
2022-12-20T03:42:17.534Z,8.73
2022-12-20T03:45:20.343Z,8.70
2022-12-20T03:48:25.624Z,7.27
2022-12-20T03:51:29.777Z,7.75
2022-12-20T03:54:32.611Z,7.88
2022-12-20T03:57:36.441Z,7.95
2022-12-20T04:00:39.410Z,6.87
2022-12-20T04:03:44.913Z,7.50
2022-12-20T04:06:49.355Z,6.72
2022-12-20T04:09:52.248Z,7.22
2022-12-20T04:12:56.071Z,8.13
2022-12-20T04:16:00.872Z,7.35
2022-12-20T04:19:06.555Z,7.70
2022-12-20T04:22:10.491Z,8.00
2022-12-20T04:25:13.742Z,7.70
2022-12-20T04:28:17.599Z,6.70
2022-12-20T04:31:24.167Z,7.57
2022-12-20T04:34:30.096Z,7.80
2022-12-20T04:37:34.065Z,8.20
2022-12-20T04:40:38.743Z,6.57
2022-12-20T04:43:42.608Z,6.75
2022-12-20T04:46:45.611Z,7.43
2022-12-20T04:49:50.831Z,7.43
2022-12-20T04:53:12.371Z,8.30
2022-12-20T04:56:16.795Z,7.80
2022-12-20T04:59:20.628Z,7.53
2022-12-20T05:02:23.561Z,7.75
2022-12-20T05:05:29.203Z,7.50
2022-12-20T05:08:31.925Z,7.80
2022-12-20T05:11:35.764Z,7.77
2022-12-20T05:14:40.143Z,7.57
2022-12-20T05:17:42.831Z,7.28
2022-12-20T05:21:11.774Z,7.80
2022-12-20T05:24:31.834Z,7.20
2022-12-20T05:27:35.666Z,7.87
2022-12-20T05:30:38.760Z,8.05
2022-12-20T05:33:41.558Z,7.80
2022-12-20T05:36:46.856Z,8.48
2022-12-20T05:39:50.446Z,7.73
2022-12-20T05:42:54.315Z,8.50
2022-12-20T05:45:57.060Z,8.05
2022-12-20T05:49:01.198Z,8.43
2022-12-20T05:52:06.927Z,8.93
2022-12-20T05:55:10.423Z,8.63
2022-12-20T05:58:15.467Z,8.93
2022-12-20T06:01:18.344Z,8.00
2022-12-20T06:04:22.794Z,7.85
2022-12-20T06:07:30.020Z,7.63
2022-12-20T06:10:34.598Z,7.70
2022-12-20T06:13:38.788Z,7.27
2022-12-20T06:16:41.986Z,7.55
2022-12-20T06:19:45.883Z,8.10
2022-12-20T06:22:51.159Z,7.55
2022-12-20T06:25:54.341Z,8.27
2022-12-20T06:32:24.876Z,8.23
2022-12-20T06:35:29.149Z,7.85
2022-12-20T06:38:34.663Z,8.82
2022-12-20T06:41:38.170Z,8.23
2022-12-20T06:44:42.012Z,7.43
2022-12-20T06:47:44.724Z,8.70
2022-12-20T06:50:55.451Z,8.15
2022-12-20T06:54:01.431Z,7.53
2022-12-20T06:57:04.320Z,8.80
2022-12-20T07:00:11.669Z,8.90
2022-12-20T07:03:14.971Z,8.18
2022-12-20T07:06:19.098Z,8.27
2022-12-20T07:09:24.374Z,7.88
2022-12-20T07:12:27.147Z,7.70
2022-12-20T07:15:33.567Z,8.67
2022-12-20T07:18:36.432Z,8.40
2022-12-20T07:21:40.833Z,8.55
2022-12-20T07:24:46.455Z,8.95
2022-12-20T07:27:49.875Z,7.77
2022-12-20T07:30:52.955Z,8.83
2022-12-20T07:33:55.699Z,8.25
2022-12-20T07:36:59.237Z,8.82
2022-12-20T07:40:06.877Z,8.98
2022-12-20T07:43:11.719Z,9.00
2022-12-20T07:46:17.642Z,8.87
2022-12-20T07:49:20.459Z,8.90
2022-12-20T07:52:27.557Z,9.15
2022-12-20T07:55:34.641Z,8.27
2022-12-20T07:58:40.856Z,8.80
2022-12-20T08:01:46.604Z,8.60
2022-12-20T08:04:51.001Z,8.80
2022-12-20T08:07:59.387Z,9.00
2022-12-20T08:11:04.775Z,9.02
2022-12-20T08:14:11.572Z,8.90
2022-12-20T08:17:15.219Z,8.67
2022-12-20T08:20:18.938Z,8.80
2022-12-20T08:23:22.472Z,9.23
2022-12-20T08:26:27.102Z,9.18
2022-12-20T08:29:29.965Z,9.20
2022-12-20T08:32:32.727Z,10.93
2022-12-20T08:35:35.453Z,10.32
2022-12-20T08:38:39.322Z,10.80
2022-12-20T08:41:43.491Z,10.70
2022-12-20T08:44:46.335Z,9.20
2022-12-20T08:47:49.109Z,10.03
2022-12-20T08:50:56.429Z,9.00
2022-12-20T08:53:59.400Z,9.48
2022-12-20T08:57:03.632Z,9.98
2022-12-20T09:00:07.888Z,9.23
2022-12-20T09:03:11.738Z,10.57
2022-12-20T09:06:16.430Z,9.38
2022-12-20T09:09:19.472Z,11.45
2022-12-20T09:12:23.563Z,11.25
2022-12-20T09:15:27.676Z,10.60
2022-12-20T09:18:30.492Z,9.87
2022-12-20T09:21:33.307Z,11.00
2022-12-20T09:24:38.534Z,11.18
2022-12-20T09:27:47.274Z,9.98
2022-12-20T09:30:50.107Z,11.47
2022-12-20T09:33:55.005Z,10.23
2022-12-20T09:36:59.444Z,10.43
2022-12-20T09:40:02.759Z,11.25
2022-12-20T09:43:11.988Z,10.52
2022-12-20T09:46:16.488Z,10.33
2022-12-20T09:49:22.736Z,10.17
2022-12-20T09:52:50.516Z,10.07
2022-12-20T09:56:01.026Z,10.40
2022-12-20T09:59:08.858Z,9.90
2022-12-20T10:02:44.419Z,9.63
2022-12-20T10:05:47.255Z,10.80
2022-12-20T10:08:56.787Z,10.40
2022-12-20T10:12:14.717Z,10.20
2022-12-20T10:15:26.497Z,8.73
2022-12-20T10:18:49.239Z,9.90
2022-12-20T10:22:00.199Z,9.73
2022-12-20T10:25:16.409Z,9.52
2022-12-20T10:28:26.359Z,10.27
2022-12-20T10:31:33.445Z,9.18
2022-12-20T10:34:40.001Z,10.53
2022-12-20T10:38:07.920Z,8.57
2022-12-20T10:41:21.825Z,9.52
2022-12-20T10:44:28.504Z,9.50
2022-12-20T10:47:42.456Z,9.32
2022-12-20T10:50:57.785Z,9.90
2022-12-20T10:54:04.286Z,8.93
2022-12-20T10:57:20.808Z,9.80
2022-12-20T11:00:31.165Z,9.77
2022-12-20T11:03:36.912Z,9.95
2022-12-20T11:06:45.492Z,9.80
2022-12-20T11:09:59.161Z,8.57
2022-12-20T11:13:05.597Z,9.85
2022-12-20T11:16:37.289Z,10.02
2022-12-20T11:19:57.681Z,9.23
2022-12-20T11:23:19.787Z,9.30
2022-12-20T11:26:38.640Z,9.20
2022-12-20T11:30:05.966Z,9.60
2022-12-20T11:33:26.027Z,7.93
2022-12-20T11:36:50.254Z,8.73
2022-12-20T11:40:05.390Z,8.10
2022-12-20T11:43:54.177Z,9.13
2022-12-20T11:47:17.688Z,8.70
2022-12-20T11:50:45.595Z,8.75
2022-12-20T11:53:58.485Z,8.32
2022-12-20T11:57:05.399Z,8.03
2022-12-20T12:00:14.230Z,7.57
2022-12-20T12:03:28.394Z,7.40
2022-12-20T12:06:39.868Z,7.05
2022-12-20T12:09:56.482Z,6.90
2022-12-20T12:13:17.302Z,7.93
2022-12-20T12:16:25.518Z,7.03
2022-12-20T12:19:30.861Z,7.30
2022-12-20T12:22:41.921Z,7.88
2022-12-20T12:25:47.711Z,6.63
2022-12-20T12:28:57.819Z,7.33
2022-12-20T12:32:06.321Z,7.37
2022-12-20T12:35:40.189Z,7.45
2022-12-20T12:39:10.306Z,7.30
2022-12-20T12:42:46.012Z,7.10
2022-12-20T12:45:51.482Z,7.50
2022-12-20T12:49:01.201Z,6.93
2022-12-20T12:52:07.231Z,7.60
2022-12-20T12:55:45.545Z,7.10
2022-12-20T12:59:21.815Z,7.70
2022-12-20T13:02:36.426Z,7.70
2022-12-20T13:05:46.905Z,6.80
2022-12-20T13:09:10.808Z,6.65
2022-12-20T13:12:50.713Z,6.50
2022-12-20T13:16:16.454Z,7.35
2022-12-20T13:19:32.490Z,6.90
2022-12-20T13:22:35.531Z,7.20
2022-12-20T13:25:40.432Z,7.28
2022-12-20T13:28:46.870Z,7.25
2022-12-20T13:31:54.605Z,7.85
2022-12-20T13:35:01.038Z,7.60
2022-12-20T13:38:06.365Z,7.43
2022-12-20T13:41:20.287Z,7.60
2022-12-20T13:44:38.470Z,7.30
2022-12-20T13:47:52.534Z,7.07
2022-12-20T13:50:56.880Z,6.83
2022-12-20T13:54:06.058Z,8.03
2022-12-20T13:57:12.732Z,7.35
2022-12-20T14:00:18.930Z,7.35
2022-12-20T14:03:26.333Z,6.97
2022-12-20T14:06:29.531Z,7.53
2022-12-20T14:09:35.461Z,7.30
2022-12-20T14:12:44.919Z,7.30
2022-12-20T14:15:48.334Z,7.45
2022-12-20T14:19:03.094Z,7.28
2022-12-20T14:22:06.719Z,6.83
2022-12-20T14:25:13.125Z,7.13
2022-12-20T14:28:32.893Z,7.18
2022-12-20T14:31:41.469Z,7.70
2022-12-20T14:34:45.646Z,6.65
2022-12-20T14:37:54.812Z,7.30
2022-12-20T14:40:58.383Z,6.93
2022-12-20T14:44:07.129Z,6.60
2022-12-20T14:47:19.592Z,6.95
2022-12-20T14:50:31.447Z,7.47
2022-12-20T14:53:36.071Z,7.30
2022-12-20T14:56:48.003Z,7.43
2022-12-20T15:00:00.607Z,7.30
2022-12-20T15:03:13.169Z,7.30
2022-12-20T15:06:33.059Z,7.30
2022-12-20T15:09:38.809Z,7.72
2022-12-20T15:12:44.252Z,7.28
2022-12-20T15:15:47.196Z,7.97
2022-12-20T15:18:51.173Z,7.67
2022-12-20T15:21:55.860Z,7.90
2022-12-20T15:25:01.180Z,7.20
2022-12-20T15:28:06.074Z,7.22
2022-12-20T15:31:14.154Z,7.82
2022-12-20T15:34:32.231Z,7.93
2022-12-20T15:37:39.698Z,8.20
2022-12-20T15:40:42.509Z,7.95
2022-12-20T15:43:47.188Z,8.50
2022-12-20T15:46:50.467Z,8.45
2022-12-20T15:49:53.582Z,8.37
2022-12-20T15:52:58.398Z,8.02
2022-12-20T15:56:03.827Z,8.10
2022-12-20T15:59:32.545Z,8.90
2022-12-20T16:02:38.212Z,8.75
2022-12-20T16:05:43.633Z,8.13
2022-12-20T16:08:47.908Z,8.70
2022-12-20T16:11:53.355Z,9.52
2022-12-20T16:14:57.870Z,8.40
2022-12-20T16:18:00.676Z,9.27
2022-12-20T16:21:05.336Z,8.10
2022-12-20T16:24:13.883Z,8.85
2022-12-20T16:27:16.975Z,9.38
2022-12-20T16:30:23.424Z,9.27
2022-12-20T16:33:27.204Z,9.10
2022-12-20T16:36:30.707Z,8.77
2022-12-20T16:39:35.820Z,9.02
2022-12-20T16:42:38.619Z,9.45
2022-12-20T16:45:41.521Z,8.93
2022-12-20T16:48:46.653Z,9.07
2022-12-20T16:51:52.566Z,8.80
2022-12-20T16:54:58.865Z,8.63
2022-12-20T16:58:01.823Z,9.52
2022-12-20T17:01:04.797Z,9.05
2022-12-20T17:04:09.794Z,9.00
2022-12-20T17:07:14.191Z,9.47
2022-12-20T17:10:20.999Z,8.65
2022-12-20T17:13:24.235Z,9.43
2022-12-20T17:16:28.008Z,8.73
2022-12-20T17:19:30.833Z,9.02
2022-12-20T17:25:55.261Z,8.88
2022-12-20T17:29:00.577Z,8.95
2022-12-20T17:32:03.964Z,9.02
2022-12-20T17:35:08.171Z,9.23
2022-12-20T17:38:11.089Z,9.40
2022-12-20T17:41:23.196Z,9.07
2022-12-20T17:44:29.762Z,9.00
2022-12-20T17:47:33.887Z,9.50
2022-12-20T17:50:36.593Z,9.52
2022-12-20T17:53:39.567Z,9.33
2022-12-20T17:56:43.683Z,9.35
2022-12-20T17:59:48.033Z,8.88
2022-12-20T18:02:50.928Z,8.25
2022-12-20T18:09:18.299Z,8.40
2022-12-20T18:12:22.394Z,8.40
2022-12-20T18:15:26.649Z,9.90
2022-12-20T18:18:36.564Z,8.82
2022-12-20T18:21:40.419Z,9.73
2022-12-20T18:24:44.392Z,9.13
2022-12-20T18:27:48.657Z,9.45
2022-12-20T18:30:52.651Z,10.55
2022-12-20T18:33:58.360Z,9.75
2022-12-20T18:37:01.835Z,9.75
2022-12-20T18:43:28.417Z,9.68
2022-12-20T18:46:31.239Z,9.38
2022-12-20T18:49:35.659Z,9.80
2022-12-20T18:52:41.159Z,10.05
2022-12-20T18:55:45.906Z,9.30
2022-12-20T18:58:50.071Z,9.25
2022-12-20T19:01:53.212Z,10.27
2022-12-20T19:04:57.265Z,9.55
2022-12-20T19:07:59.994Z,9.65
2022-12-20T19:11:08.404Z,9.27
2022-12-20T19:14:13.522Z,9.50
2022-12-20T19:17:17.935Z,9.75
2022-12-20T19:20:21.181Z,10.38
2022-12-20T19:23:25.125Z,8.95
2022-12-20T19:26:30.964Z,8.93
2022-12-20T19:29:35.462Z,8.73
2022-12-20T19:32:39.505Z,9.65
2022-12-20T19:35:55.334Z,9.30
2022-12-20T19:39:00.752Z,9.93
2022-12-20T19:42:23.710Z,9.60
2022-12-20T19:45:30.079Z,9.48
2022-12-20T19:48:34.465Z,9.63
2022-12-20T19:51:38.810Z,9.65
2022-12-20T19:54:43.052Z,8.98
2022-12-20T19:57:47.300Z,9.10
2022-12-20T20:00:52.854Z,7.70
2022-12-20T20:03:57.194Z,8.90
2022-12-20T20:07:01.290Z,9.60
2022-12-20T20:10:04.221Z,9.82
2022-12-20T20:13:09.878Z,9.40
2022-12-20T20:16:21.945Z,9.20
2022-12-20T20:19:25.810Z,9.25
2022-12-20T20:22:29.810Z,9.65
2022-12-20T20:25:35.397Z,9.13
2022-12-20T20:28:45.017Z,9.13
2022-12-20T20:31:51.358Z,9.60
2022-12-20T20:34:54.457Z,9.73
2022-12-20T20:37:58.485Z,8.57
2022-12-20T20:41:01.808Z,9.67
2022-12-20T20:47:29.340Z,10.30
2022-12-20T20:50:32.466Z,9.10
2022-12-20T20:53:37.148Z,9.00
2022-12-20T20:56:39.893Z,9.57
2022-12-20T20:59:45.922Z,8.90
2022-12-20T21:02:51.587Z,10.35
2022-12-20T21:09:18.995Z,10.13
2022-12-20T21:12:23.383Z,8.80
2022-12-20T21:15:28.081Z,8.82
2022-12-20T21:18:33.629Z,9.02
2022-12-20T21:21:36.400Z,8.80
2022-12-20T21:24:40.958Z,8.48
2022-12-20T21:27:45.492Z,9.13
2022-12-20T21:30:48.505Z,8.52
2022-12-20T21:33:53.983Z,9.23
2022-12-20T21:36:57.147Z,8.38
2022-12-20T21:40:01.163Z,8.85
2022-12-20T21:43:03.949Z,8.67
2022-12-20T21:46:11.093Z,9.07
2022-12-20T21:49:16.091Z,9.23
2022-12-20T21:52:18.973Z,9.63
2022-12-20T21:55:25.536Z,9.10
2022-12-20T21:58:30.274Z,8.93
2022-12-20T22:01:33.246Z,8.50
2022-12-20T22:04:40.424Z,9.25
2022-12-20T22:07:43.259Z,8.77
2022-12-20T22:10:47.465Z,8.68
2022-12-20T22:13:56.706Z,9.00
2022-12-20T22:16:59.620Z,7.60
2022-12-20T22:23:25.529Z,9.55
2022-12-20T22:26:31.872Z,8.50
2022-12-20T22:29:36.022Z,9.10
2022-12-20T22:32:38.799Z,7.97
2022-12-20T22:35:44.343Z,9.13
2022-12-20T22:38:48.203Z,9.85
2022-12-20T22:41:52.675Z,9.05
2022-12-20T22:44:56.927Z,9.83
2022-12-20T22:47:59.915Z,10.18
2022-12-20T22:51:07.802Z,9.50
2022-12-20T22:54:10.568Z,8.90
2022-12-20T22:57:14.771Z,9.48
2022-12-20T23:00:19.203Z,9.73
2022-12-20T23:03:22.019Z,9.18
2022-12-20T23:06:27.589Z,9.85
2022-12-20T23:09:30.485Z,8.90
2022-12-20T23:12:52.072Z,9.43
2022-12-20T23:15:56.139Z,9.60
2022-12-20T23:19:00.399Z,8.60
2022-12-20T23:22:23.263Z,9.38
2022-12-20T23:25:26.387Z,9.70
2022-12-20T23:28:30.777Z,9.50
2022-12-20T23:31:35.694Z,9.80
2022-12-20T23:34:38.485Z,10.10
2022-12-20T23:37:43.331Z,10.05
2022-12-20T23:40:46.078Z,9.88
2022-12-20T23:43:50.369Z,9.95
2022-12-20T23:46:54.411Z,10.20
2022-12-20T23:49:57.118Z,10.27
2022-12-20T23:53:03.091Z,10.80
2022-12-20T23:56:08.308Z,10.60
2022-12-20T23:59:12.430Z,9.70
